createdAt,value
2022-11-09T00:01:02.931Z,13.70
2022-11-09T00:06:04.241Z,13.68
2022-11-09T00:11:07.775Z,13.74
2022-11-09T00:16:11.369Z,13.76
2022-11-09T00:21:21.414Z,13.81
2022-11-09T00:26:23.392Z,13.83
2022-11-09T00:31:25.002Z,13.71
2022-11-09T00:36:28.066Z,13.52
2022-11-09T00:41:29.452Z,13.34
2022-11-09T00:46:31.084Z,13.25
2022-11-09T00:51:32.593Z,13.26
2022-11-09T00:56:33.857Z,13.26
2022-11-09T01:01:35.290Z,13.16
2022-11-09T01:06:36.688Z,13.12
2022-11-09T01:11:38.216Z,13.19
2022-11-09T01:16:39.519Z,13.21
2022-11-09T01:21:41.102Z,13.28
2022-11-09T01:26:42.423Z,13.32
2022-11-09T01:31:43.729Z,13.35
2022-11-09T01:36:44.994Z,13.40
2022-11-09T01:41:47.000Z,13.46
2022-11-09T01:46:51.005Z,13.38
2022-11-09T01:52:04.348Z,13.36
2022-11-09T01:57:10.868Z,13.30
2022-11-09T02:02:12.855Z,13.18
2022-11-09T02:07:14.723Z,13.11
2022-11-09T02:12:18.069Z,13.21
2022-11-09T02:17:19.999Z,13.19
2022-11-09T02:22:21.634Z,13.06
2022-11-09T02:27:24.154Z,13.19
2022-11-09T02:32:28.889Z,13.21
2022-11-09T02:37:37.684Z,13.21
2022-11-09T02:42:39.164Z,13.28
2022-11-09T02:47:40.517Z,13.25
2022-11-09T02:52:41.821Z,13.25
2022-11-09T02:57:43.171Z,13.31
2022-11-09T03:02:44.551Z,13.36
2022-11-09T03:07:45.873Z,13.31
2022-11-09T03:12:47.197Z,13.37
2022-11-09T03:17:48.473Z,13.32
2022-11-09T03:22:49.743Z,13.27
2022-11-09T03:27:57.268Z,13.44
2022-11-09T03:33:09.951Z,13.50
2022-11-09T03:38:11.315Z,13.49
2022-11-09T03:43:12.720Z,13.56
2022-11-09T03:48:14.028Z,13.64
2022-11-09T03:53:15.366Z,13.65
2022-11-09T03:58:16.788Z,13.66
2022-11-09T04:03:18.253Z,13.60
2022-11-09T04:08:19.711Z,13.52
2022-11-09T04:13:21.165Z,13.56
2022-11-09T04:18:22.693Z,13.57
2022-11-09T04:23:23.986Z,13.54
2022-11-09T04:28:25.634Z,13.50
2022-11-09T04:33:26.980Z,13.47
2022-11-09T04:38:28.407Z,13.47
2022-11-09T04:43:29.910Z,13.54
2022-11-09T04:48:32.687Z,13.54
2022-11-09T04:53:35.032Z,13.53
2022-11-09T04:58:36.342Z,13.57
2022-11-09T05:03:37.979Z,13.50
2022-11-09T05:08:39.308Z,13.49
2022-11-09T05:13:40.603Z,13.41
2022-11-09T05:18:42.020Z,13.43
2022-11-09T05:23:58.863Z,13.50
2022-11-09T05:29:02.512Z,13.43
2022-11-09T05:34:05.210Z,13.30
2022-11-09T05:39:06.537Z,13.24
2022-11-09T05:44:07.915Z,13.17
2022-11-09T05:49:09.277Z,13.16
2022-11-09T05:54:10.629Z,13.15
2022-11-09T05:59:12.077Z,13.18
2022-11-09T06:04:13.366Z,13.15
2022-11-09T06:09:14.613Z,13.15
2022-11-09T06:14:16.034Z,13.14
2022-11-09T06:19:17.334Z,13.21
2022-11-09T06:24:18.628Z,13.15
2022-11-09T06:29:20.051Z,13.16
2022-11-09T06:34:21.359Z,13.23
2022-11-09T06:39:23.171Z,13.19
2022-11-09T06:44:24.453Z,13.17
2022-11-09T06:49:25.743Z,13.21
2022-11-09T06:54:27.975Z,13.20
2022-11-09T06:59:29.471Z,13.28
2022-11-09T07:04:30.736Z,13.26
2022-11-09T07:09:33.270Z,13.32
2022-11-09T07:14:34.581Z,13.36
2022-11-09T07:19:36.923Z,13.28
2022-11-09T07:24:38.178Z,13.36
2022-11-09T07:29:39.450Z,13.51
2022-11-09T07:34:40.746Z,13.69
2022-11-09T07:39:42.069Z,13.86
2022-11-09T07:44:43.358Z,13.76
2022-11-09T07:49:45.010Z,13.77
2022-11-09T07:54:51.832Z,13.70
2022-11-09T07:59:53.579Z,13.65
2022-11-09T08:04:54.939Z,13.58
2022-11-09T08:09:56.276Z,13.52
2022-11-09T08:14:57.654Z,13.43
2022-11-09T08:19:58.928Z,13.36
2022-11-09T08:25:00.400Z,13.39
2022-11-09T08:30:01.711Z,13.37
2022-11-09T08:35:03.748Z,13.48
2022-11-09T08:40:06.510Z,13.54
2022-11-09T08:45:08.402Z,13.55
2022-11-09T08:50:11.160Z,13.56
2022-11-09T08:55:12.511Z,13.50
2022-11-09T09:00:14.759Z,13.61
2022-11-09T09:05:16.986Z,13.67
2022-11-09T09:10:18.921Z,14.03
2022-11-09T09:15:21.595Z,14.34
2022-11-09T09:20:22.973Z,14.74
2022-11-09T09:25:24.684Z,14.63
2022-11-09T09:30:26.023Z,14.47
2022-11-09T09:35:28.473Z,14.23
2022-11-09T09:40:48.322Z,14.23
2022-11-09T09:45:52.924Z,14.44
2022-11-09T09:51:01.257Z,14.38
2022-11-09T09:56:10.856Z,14.45
2022-11-09T10:01:20.999Z,14.94
2022-11-09T10:06:58.923Z,15.66
2022-11-09T10:12:15.868Z,16.36
2022-11-09T10:17:35.507Z,17.58
2022-11-09T10:23:03.282Z,18.83
2022-11-09T10:28:13.251Z,21.66
2022-11-09T10:33:21.344Z,22.29
2022-11-09T10:38:28.970Z,21.11
2022-11-09T10:43:30.305Z,20.29
2022-11-09T10:48:40.122Z,21.19
2022-11-09T10:53:41.443Z,23.42
2022-11-09T10:59:01.049Z,24.87
2022-11-09T11:04:20.790Z,21.43
2022-11-09T11:09:23.348Z,20.15
2022-11-09T11:14:36.336Z,19.53
2022-11-09T11:19:44.575Z,19.68
2022-11-09T11:24:55.069Z,19.26
2022-11-09T11:30:05.446Z,17.83
2022-11-09T11:35:16.433Z,16.98
2022-11-09T11:40:50.611Z,16.58
2022-11-09T11:46:08.722Z,16.15
2022-11-09T11:51:19.105Z,15.90
2022-11-09T11:56:22.664Z,16.18
2022-11-09T12:01:50.563Z,17.39
2022-11-09T12:07:19.766Z,17.60
2022-11-09T12:12:34.141Z,18.81
2022-11-09T12:17:59.009Z,18.10
2022-11-09T12:23:25.435Z,17.43
2022-11-09T12:28:29.830Z,17.63
2022-11-09T12:33:58.534Z,18.18
2022-11-09T12:39:25.975Z,19.65
2022-11-09T12:44:37.604Z,19.08
2022-11-09T12:49:42.546Z,18.23
2022-11-09T12:54:49.716Z,17.49
2022-11-09T12:59:53.328Z,16.96
2022-11-09T13:04:57.313Z,16.69
2022-11-09T13:10:01.694Z,16.33
2022-11-09T13:15:24.781Z,16.06
2022-11-09T13:25:57.567Z,15.84
2022-11-09T13:31:04.188Z,15.79
2022-11-09T13:36:08.296Z,15.89
2022-11-09T13:41:28.321Z,15.79
2022-11-09T13:46:36.255Z,15.71
2022-11-09T13:51:48.017Z,15.65
2022-11-09T13:56:50.422Z,15.49
2022-11-09T14:01:54.522Z,15.49
2022-11-09T14:07:01.431Z,15.50
2022-11-09T14:12:28.057Z,15.57
2022-11-09T14:17:45.280Z,15.55
2022-11-09T14:22:46.655Z,15.55
2022-11-09T14:27:57.308Z,15.49
2022-11-09T14:32:59.130Z,15.38
2022-11-09T14:38:14.415Z,15.30
2022-11-09T14:43:29.168Z,15.11
2022-11-09T14:48:32.339Z,14.97
2022-11-09T14:53:36.657Z,14.83
2022-11-09T14:58:42.602Z,14.64
2022-11-09T15:03:44.872Z,14.54
2022-11-09T15:08:58.616Z,14.44
2022-11-09T15:14:00.190Z,14.46
2022-11-09T15:19:01.583Z,14.37
2022-11-09T15:24:08.560Z,14.36
2022-11-09T15:29:40.761Z,14.34
2022-11-09T15:34:51.141Z,14.29
2022-11-09T15:39:52.690Z,14.30
2022-11-09T15:44:56.949Z,14.30
2022-11-09T15:49:59.559Z,14.30
2022-11-09T15:55:00.845Z,14.33
2022-11-09T16:00:07.820Z,14.19
2022-11-09T16:05:13.084Z,14.06
2022-11-09T16:10:15.429Z,14.03
2022-11-09T16:15:16.755Z,14.00
2022-11-09T16:20:19.584Z,13.93
2022-11-09T16:25:21.646Z,13.96
2022-11-09T16:30:22.958Z,13.96
2022-11-09T16:35:27.312Z,13.91
2022-11-09T16:40:31.616Z,13.84
2022-11-09T16:45:33.873Z,13.86
2022-11-09T16:50:35.355Z,13.87
2022-11-09T16:55:39.675Z,13.96
2022-11-09T17:01:09.744Z,14.02
2022-11-09T17:06:11.237Z,14.01
2022-11-09T17:11:14.894Z,14.06
2022-11-09T17:16:20.845Z,14.07
2022-11-09T17:21:24.253Z,14.08
2022-11-09T17:26:26.467Z,14.05
2022-11-09T17:31:27.819Z,14.07
2022-11-09T17:36:56.798Z,14.03
2022-11-09T17:41:52.020Z,14.02
2022-11-09T17:46:55.752Z,14.00
2022-11-09T17:51:57.639Z,13.94
2022-11-09T17:57:00.864Z,13.97
2022-11-09T18:02:02.205Z,13.88
2022-11-09T18:07:03.670Z,13.82
2022-11-09T18:12:05.353Z,13.84
2022-11-09T18:17:06.626Z,13.90
2022-11-09T18:22:12.512Z,13.78
2022-11-09T18:27:14.236Z,13.77
2022-11-09T18:32:15.975Z,13.72
2022-11-09T18:37:17.249Z,13.77
2022-11-09T18:42:18.551Z,13.63
2022-11-09T18:47:20.430Z,13.68
2022-11-09T18:52:21.856Z,13.59
2022-11-09T18:57:23.144Z,13.51
2022-11-09T19:02:24.473Z,13.49
2022-11-09T19:07:25.762Z,13.47
2022-11-09T19:12:29.416Z,13.46
2022-11-09T19:17:30.754Z,13.47
2022-11-09T19:22:36.451Z,13.44
2022-11-09T19:27:37.728Z,13.37
2022-11-09T19:32:39.189Z,13.42
2022-11-09T19:37:40.542Z,13.40
2022-11-09T19:42:42.092Z,13.46
2022-11-09T19:47:43.538Z,13.44
2022-11-09T19:52:44.972Z,13.43
2022-11-09T19:57:46.332Z,13.44
2022-11-09T20:02:47.614Z,13.44
2022-11-09T20:07:48.900Z,13.44
2022-11-09T20:12:50.588Z,13.40
2022-11-09T20:17:51.871Z,13.37
2022-11-09T20:22:53.160Z,13.35
2022-11-09T20:27:54.517Z,13.29
2022-11-09T20:32:55.968Z,13.26
2022-11-09T20:37:57.257Z,13.24
2022-11-09T20:42:58.740Z,13.24
2022-11-09T20:48:19.490Z,13.13
2022-11-09T20:53:21.279Z,13.08
2022-11-09T20:58:24.035Z,13.08
2022-11-09T21:03:26.747Z,13.01
2022-11-09T21:08:28.197Z,12.96
2022-11-09T21:13:29.903Z,12.93
2022-11-09T21:18:31.247Z,12.92
2022-11-09T21:23:51.348Z,12.86
2022-11-09T21:29:10.994Z,12.78
2022-11-09T21:34:12.332Z,12.70
2022-11-09T21:39:13.664Z,12.65
2022-11-09T21:44:15.223Z,12.60
2022-11-09T21:49:16.567Z,12.49
2022-11-09T21:54:17.900Z,12.42
2022-11-09T21:59:19.545Z,12.24
2022-11-09T22:04:20.819Z,12.23
2022-11-09T22:09:22.084Z,12.06
2022-11-09T22:14:42.051Z,12.02
2022-11-09T22:20:02.370Z,11.91
2022-11-09T22:25:04.183Z,11.91
2022-11-09T22:30:06.361Z,11.81
2022-11-09T22:35:08.155Z,11.74
2022-11-09T22:40:10.060Z,11.75
2022-11-09T22:45:11.332Z,11.64
2022-11-09T22:50:12.589Z,11.63
2022-11-09T22:55:14.056Z,11.62
2022-11-09T23:00:16.254Z,11.65
2022-11-09T23:05:19.913Z,11.56
2022-11-09T23:10:21.180Z,11.52
2022-11-09T23:15:22.491Z,11.55
2022-11-09T23:20:23.752Z,11.50
2022-11-09T23:25:43.691Z,11.40
2022-11-09T23:30:45.102Z,11.35
2022-11-09T23:35:46.720Z,11.34
2022-11-09T23:40:49.555Z,11.34
2022-11-09T23:45:50.849Z,11.30
2022-11-09T23:50:52.244Z,11.25
2022-11-09T23:55:54.297Z,11.24
